Terminal Aerodrome Forecast
Issued by NWS

Home | Current Version | Previous Version | Text Only | Print | Product List | Glossary On
Versions: 1 2 3 4 5 6 7 8 9 10 11 12 13 14 15
000
FTUS41 KPHI 191100 RRA
TAFMIV
TAF
KMIV 191141Z 1912/2012 03012KT P6SM FEW080
     FM191500 06011KT P6SM SCT060
     FM191800 09010KT P6SM SCT060
     FM200300 09005KT P6SM BKN040
     FM200900 11004KT 4SM BR OVC025
      TEMPO 2009/2012 5SM -DZ BR BKN015=

USA.gov is the U.S. government's official web portal to all federal, state and local government web resources and services.